CheckWX is a tool to help pilots better visualize weather data.  It is not intended as a substitute for an official pre-flight weather briefing.

06:44:25 UTC

GQPP TAF
Nouadhibou International Airport
Nouadhibou, Mauritania
TAF GQPP 260500Z 2606/2706 36016KT 7000 FEW010 PROB40 TEMPO 2606/2610 BKN008 PROB40 TEMPO 2614/2620 4000 DRSA

Jun-26@
06:00 UTC

Jun-26 @ 06:00 UTC

Jun-27@
06:00 UTC

Jun-27 @ 06:00 UTC

TAF GQPP 260500Z 2606/2706 36016KT 7000 FEW010
Wind
  • 360° at 16 KTS
Cloud Levels
  • Few at 1,000' AGL

Jun-26@
06:00 UTC

Jun-26 @ 06:00 UTC

Jun-26@
10:00 UTC

Jun-26 @ 10:00 UTC

PROB40 TEMPO 2606/2610 BKN008

Temporary - 40% Likelihood

Temporary - 40% Likelihood during this time.

Cloud Levels
  • Broken at 800' AGL

Jun-26@
14:00 UTC

Jun-26 @ 14:00 UTC

Jun-26@
20:00 UTC

Jun-26 @ 20:00 UTC

PROB40 TEMPO 2614/2620 4000 DRSA

Temporary - 40% Likelihood

Temporary - 40% Likelihood during this time.

Conditions
Low drifting Sand